Airfield :
LOGIN :

Register | Disclaimer

   EN    FR    IT 

 










Legend :    VFR   Marginal VFR   IFR   Intensive IFR   Very Intensive IFR
Visi :
Ceiling :
>= 8 km
>= 3000ft
5 to 8 km
1000 to 3000 ft
1500m to 5 km
500 to 1000 ft
800 to 1500m
200 to 500 ft
< 800m
< 200 ft
Symbols :   Thunderstorms  Fog  Heavy snow  Heavy precipitations  Wind > 20 kt
SIGMETs :     Misc.  Thunderstorms  Icing  Turbulence  Mountain Waves  Volcanic Ashes






- Airport Elevation : 28 ft
- IATA code : OLA


ENOL - Ørland

CURRENT METAR :
  • 290620Z 29020KT 9999 VCSH SCT012CB BKN035 01/M01 Q1028 TEMPO 32025G35KT 0800 SHSNGS VV006

EXPIRED METARs :
  • 290550Z 27025KT 9999 VCSH SCT012CB BKN030 01/M01 Q1029 RESHSN TEMPO 32025G35KT 0800 SHSNGS VV006
  • 290520Z 29010KT 9999 VCSH SCT012CB BKN060 01/M02 Q1029 TEMPO 32025G35KT 0800 SHSNGS VV006
  • 290450Z 31019KT 9999 VCSH SCT012CB BKN040 01/M01 Q1030 TEMPO 32025G35KT 0800 SHSNGS VV006
  • 290420Z 29018KT 9999 VCSH SCT012CB SCT020 01/M03 Q1030 TEMPO 32025G35KT 0800 SHSNGS VV006
  • 290350Z 29017G29KT 0800 SHSNGS VV006 01/M02 Q1030

TAF TAF ENOL
Valid from the 29 at 06:00 until the 30 at 06:00 UTC


2906/3006 26020KT 9999 FEW012CB BKN030
TEMPO 2906/3006 0800 SHSNGS VV006
PROB30 2906/2912 0800 SN VV006
TEMPO 2906/2911 27025G40KT
BECMG 2910/2913 33015KT
TEMPO 2911/2914 33025G35KT



MET'MAP, your aeronautical weather chart ! - Copyright ORBIFLY December 2007 - Disclaimer

ORBIFLY MET'MAP TEAM :

Programming & Development : Alexandra Zaïnal
Concept & original design : Baudouin d'Aumeries
Assistance for programming : Marc-Olivier Méhu
Technical & hardware support : Manuel Goepfert

Contact : metmap@orbifly.com




SOURCES & CREDITS :

   NOAA